Time;durP1;ratioP1;P1;durP2;ratioP2;P2;SDS_P1;SDS_P2;PMS_P1;PMS_P2;Temp;Humidity;BMP_temperature;BMP_pressure;BME280_temperature;BME280_humidity;BME280_pressure;Samples;Min_cycle;Max_cycle;Signal;HPM_P1;HPM_P2
2022/01/19 00:01:17;;;;;;;58.05;29.25;;;5.60;88.90;;;;;;5007677;28;20085;-78
2022/01/19 00:03:43;;;;;;;56.33;29.60;;;5.80;89.40;;;;;;5010829;28;20041;-78
2022/01/19 00:06:09;;;;;;;56.00;29.10;;;5.70;88.70;;;;;;5009499;28;20068;-79
2022/01/19 00:08:35;;;;;;;56.40;29.35;;;5.60;88.30;;;;;;5005654;28;20109;-79
2022/01/19 00:11:01;;;;;;;65.22;30.67;;;5.60;88.40;;;;;;5012781;28;20034;-78
2022/01/19 00:13:26;;;;;;;55.70;29.42;;;5.60;89.20;;;;;;5006765;28;20457;-79
2022/01/19 00:15:52;;;;;;;54.45;28.80;;;5.60;89.30;;;;;;5009353;28;20044;-79
2022/01/19 00:18:21;;;;;;;57.92;29.90;;;5.50;89.50;;;;;;5011820;28;20029;-78
2022/01/19 00:20:48;;;;;;;55.17;28.80;;;5.60;89.80;;;;;;5011892;28;20029;-78
2022/01/19 00:23:18;;;;;;;57.17;29.30;;;5.60;89.50;;;;;;5014933;28;20049;-79
2022/01/19 00:25:45;;;;;;;62.10;30.98;;;5.70;89.10;;;;;;5016040;28;20065;-78
2022/01/19 00:28:11;;;;;;;64.28;31.38;;;5.60;88.10;;;;;;5011418;28;20013;-79
2022/01/19 00:30:37;;;;;;;67.32;32.45;;;5.60;88.90;;;;;;5008963;28;20104;-78
2022/01/19 00:33:03;;;;;;;61.17;30.15;;;5.50;88.70;;;;;;5014011;28;20116;-79
2022/01/19 00:35:29;;;;;;;64.85;32.10;;;5.20;89.50;;;;;;5010370;28;20542;-78
2022/01/19 00:37:54;;;;;;;61.10;31.42;;;5.20;90.10;;;;;;5017078;28;20056;-78
2022/01/19 00:40:20;;;;;;;64.18;30.55;;;5.40;90.40;;;;;;5011410;28;20025;-78
2022/01/19 00:42:47;;;;;;;64.28;31.52;;;5.50;90.20;;;;;;5008529;28;20089;-78
2022/01/19 00:45:14;;;;;;;63.08;32.10;;;5.60;90.00;;;;;;5011614;28;20037;-78
2022/01/19 00:47:40;;;;;;;58.33;30.23;;;5.70;89.80;;;;;;5009782;28;20041;-78
2022/01/19 00:50:08;;;;;;;63.72;30.88;;;5.80;88.90;;;;;;5015492;28;20054;-79
2022/01/19 00:52:36;;;;;;;62.22;31.60;;;5.70;88.40;;;;;;5015213;28;20034;-79
2022/01/19 00:55:07;;;;;;;60.83;30.13;;;5.70;89.30;;;;;;5005745;28;20463;-78
2022/01/19 00:57:32;;;;;;;57.90;30.40;;;5.70;89.70;;;;;;5007255;28;20510;-78
2022/01/19 00:59:58;;;;;;;54.60;29.23;;;5.80;89.70;;;;;;5009226;28;20014;-78
2022/01/19 01:02:24;;;;;;;62.25;29.65;;;5.70;89.80;;;;;;5009974;28;20441;-78
2022/01/19 01:04:50;;;;;;;59.22;29.85;;;5.70;89.90;;;;;;5011003;28;20436;-78
2022/01/19 01:07:15;;;;;;;58.83;29.50;;;5.60;89.90;;;;;;5009612;28;20033;-78
2022/01/19 01:09:41;;;;;;;56.65;29.75;;;5.50;90.00;;;;;;5008581;28;20396;-78
2022/01/19 01:12:12;;;;;;;58.40;28.52;;;5.60;90.30;;;;;;5010389;28;20049;-78
2022/01/19 01:20:10;;;;;;;55.75;27.48;;;6.20;89.30;;;;;;5020878;28;20519;-78
2022/01/19 01:22:38;;;;;;;65.72;30.95;;;6.30;88.80;;;;;;5019710;28;20045;-78
2022/01/19 01:25:05;;;;;;;63.40;29.67;;;6.40;88.20;;;;;;5020551;28;20024;-78
2022/01/19 01:27:31;;;;;;;60.00;28.90;;;6.40;87.80;;;;;;5018739;28;20036;-78
2022/01/19 01:29:57;;;;;;;56.85;29.05;;;6.50;87.60;;;;;;5015920;28;20400;-78
2022/01/19 01:32:22;;;;;;;54.47;28.33;;;6.50;87.50;;;;;;5019345;28;20520;-78
2022/01/19 01:34:50;;;;;;;57.13;28.17;;;6.50;87.30;;;;;;5030168;28;20105;-79
2022/01/19 01:37:16;;;;;;;58.85;27.55;;;6.60;87.20;;;;;;5022791;28;20029;-79
2022/01/19 01:39:42;;;;;;;55.58;28.30;;;6.60;86.70;;;;;;5022592;28;20399;-78
2022/01/19 01:42:12;;;;;;;52.30;28.23;;;6.70;86.70;;;;;;5018522;28;20037;-78
2022/01/19 01:44:39;;;;;;;51.60;27.77;;;6.70;86.80;;;;;;5017150;28;20026;-78
2022/01/19 01:47:06;;;;;;;55.90;27.33;;;6.60;86.20;;;;;;5020710;28;20037;-78
2022/01/19 01:55:07;;;;;;;53.58;27.02;;;6.60;85.70;;;;;;5014173;28;20041;-78
2022/01/19 01:57:33;;;;;;;55.53;28.33;;;6.70;86.00;;;;;;5015661;28;20036;-78
2022/01/19 01:59:58;;;;;;;54.40;27.05;;;6.80;85.80;;;;;;5010885;28;20400;-78
2022/01/19 02:02:24;;;;;;;51.22;27.05;;;6.80;86.40;;;;;;5010595;28;20038;-78
2022/01/19 02:04:50;;;;;;;56.35;27.25;;;6.80;86.20;;;;;;5012849;28;20095;-78
2022/01/19 02:09:49;;;;;;;54.10;28.42;;;7.00;85.20;;;;;;5011098;28;20034;-78
2022/01/19 02:23:23;;;;;;;56.90;27.80;;;7.00;85.70;;;;;;5012846;28;20041;-78
2022/01/19 02:25:58;;;;;;;52.78;27.45;;;7.00;85.30;;;;;;5011748;28;20014;-78
2022/01/19 02:42:07;;;;;;;52.13;25.58;;;7.10;85.50;;;;;;4996319;28;20582;-78
2022/01/19 02:49:50;;;;;;;49.42;26.70;;;7.10;85.80;;;;;;5007019;28;20038;-78
2022/01/19 02:52:17;;;;;;;49.55;26.95;;;7.20;85.50;;;;;;5002370;28;20049;-78
2022/01/19 02:54:44;;;;;;;52.08;27.38;;;7.10;85.20;;;;;;5005696;28;20447;-78
2022/01/19 02:57:12;;;;;;;55.30;27.50;;;7.10;85.00;;;;;;5006780;28;20088;-78
2022/01/19 03:10:23;;;;;;;48.20;25.63;;;7.30;85.60;;;;;;5006642;28;20060;-78
2022/01/19 03:12:48;;;;;;;47.17;25.10;;;7.30;85.20;;;;;;5006790;28;20448;-78
2022/01/19 03:15:15;;;;;;;49.40;25.08;;;7.40;85.00;;;;;;5006894;28;20046;-78
2022/01/19 03:17:41;;;;;;;48.83;26.33;;;7.40;84.80;;;;;;5014599;28;20030;-78
2022/01/19 03:20:09;;;;;;;52.33;26.90;;;7.30;84.30;;;;;;5021383;28;20030;-78
2022/01/19 03:22:42;;;;;;;44.38;25.38;;;7.30;84.70;;;;;;5018185;28;20488;-78
2022/01/19 03:25:12;;;;;;;48.87;26.07;;;7.30;84.80;;;;;;5014317;28;20026;-78
2022/01/19 03:27:47;;;;;;;49.47;25.50;;;7.40;85.20;;;;;;5019727;28;20034;-78
2022/01/19 03:30:17;;;;;;;48.83;25.63;;;7.40;84.90;;;;;;5020223;28;20036;-78
2022/01/19 03:32:43;;;;;;;48.50;25.80;;;7.30;85.00;;;;;;5020776;28;20026;-78
2022/01/19 03:35:10;;;;;;;44.00;25.77;;;7.30;85.20;;;;;;5021277;28;20032;-78
2022/01/19 03:37:36;;;;;;;46.35;24.70;;;7.40;85.30;;;;;;5018157;28;20024;-78
2022/01/19 03:40:07;;;;;;;50.00;25.50;;;7.40;85.00;;;;;;5015961;28;20116;-78
2022/01/19 03:42:34;;;;;;;43.95;24.20;;;7.30;84.90;;;;;;5008446;28;20071;-78
2022/01/19 03:45:00;;;;;;;50.28;25.67;;;7.40;85.30;;;;;;5014660;28;20021;-78
2022/01/19 03:47:32;;;;;;;47.97;25.85;;;7.30;84.90;;;;;;5019890;28;20488;-78
2022/01/19 03:49:57;;;;;;;49.10;26.15;;;7.40;85.40;;;;;;5017761;28;20049;-78
2022/01/19 03:52:23;;;;;;;47.05;24.45;;;7.40;85.40;;;;;;5019075;28;20143;-78
2022/01/19 03:54:49;;;;;;;48.10;26.73;;;7.40;85.40;;;;;;5016552;28;20017;-78
2022/01/19 03:57:15;;;;;;;45.47;25.05;;;7.40;85.30;;;;;;5013847;28;20145;-77
2022/01/19 03:59:41;;;;;;;44.85;24.60;;;7.30;84.70;;;;;;5017415;28;20030;-79
2022/01/19 04:02:08;;;;;;;45.80;24.00;;;7.30;85.00;;;;;;5020872;28;20385;-78
2022/01/19 04:07:09;;;;;;;45.92;24.65;;;7.30;85.40;;;;;;5017066;28;20546;-78
2022/01/19 04:09:38;;;;;;;44.22;23.38;;;7.40;86.10;;;;;;5010317;28;20034;-78
2022/01/19 04:12:06;;;;;;;43.30;25.33;;;7.50;85.70;;;;;;5016588;28;20467;-78
2022/01/19 04:14:32;;;;;;;48.92;26.88;;;7.50;86.20;;;;;;5021726;28;20021;-78
2022/01/19 04:17:02;;;;;;;43.78;23.77;;;7.50;86.60;;;;;;5021386;28;20044;-78
2022/01/19 04:19:34;;;;;;;44.03;24.25;;;7.50;86.10;;;;;;5021341;28;20029;-78
2022/01/19 04:22:03;;;;;;;43.72;24.73;;;7.60;86.10;;;;;;5019832;28;20124;-78
2022/01/19 04:24:30;;;;;;;45.70;25.60;;;7.50;85.80;;;;;;5013219;28;20026;-78
2022/01/19 04:26:58;;;;;;;45.83;24.50;;;7.40;86.20;;;;;;5019139;28;20622;-78
2022/01/19 04:29:25;;;;;;;45.25;24.33;;;7.50;86.30;;;;;;5019098;28;20034;-78
2022/01/19 04:31:51;;;;;;;46.28;24.58;;;7.50;86.70;;;;;;5017315;28;20388;-78
2022/01/19 04:34:18;;;;;;;48.58;25.00;;;7.50;86.80;;;;;;5014170;28;20026;-78
2022/01/19 04:44:58;;;;;;;53.80;27.52;;;7.60;86.50;;;;;;5017929;28;20164;-78
2022/01/19 05:03:47;;;;;;;48.67;24.13;;;7.40;87.70;;;;;;5014366;28;20048;-78
2022/01/19 05:06:16;;;;;;;43.38;24.27;;;7.50;88.40;;;;;;5014649;28;20046;-78
2022/01/19 05:13:53;;;;;;;47.17;24.33;;;7.50;88.30;;;;;;5020459;28;20068;-78
2022/01/19 05:16:23;;;;;;;47.38;25.10;;;7.50;88.50;;;;;;5020333;28;20071;-78
2022/01/19 05:18:50;;;;;;;51.35;27.98;;;7.60;88.20;;;;;;5016313;28;20022;-78
2022/01/19 05:21:16;;;;;;;51.92;26.75;;;7.50;88.50;;;;;;5015895;28;20503;-78
2022/01/19 05:23:43;;;;;;;46.72;24.88;;;7.50;88.80;;;;;;5020455;28;20022;-78
2022/01/19 05:26:09;;;;;;;47.90;27.05;;;7.40;88.40;;;;;;5019364;28;20030;-78
2022/01/19 05:28:35;;;;;;;49.50;26.30;;;7.40;88.70;;;;;;5021083;28;20025;-78
2022/01/19 05:31:01;;;;;;;46.70;24.73;;;7.40;89.30;;;;;;5017302;28;20499;-79
2022/01/19 05:33:27;;;;;;;48.88;27.13;;;7.40;89.20;;;;;;5015340;28;20057;-78
2022/01/19 05:35:52;;;;;;;57.33;29.73;;;7.40;89.20;;;;;;5018418;28;20037;-79
2022/01/19 05:38:19;;;;;;;56.67;29.92;;;7.50;89.00;;;;;;5018700;28;20076;-78
2022/01/19 05:40:45;;;;;;;63.83;33.17;;;7.50;88.80;;;;;;5020704;28;20072;-78
2022/01/19 05:43:11;;;;;;;55.03;29.52;;;7.50;88.70;;;;;;5011560;28;20038;-78
2022/01/19 05:45:37;;;;;;;51.75;27.08;;;7.30;88.60;;;;;;5016222;28;20054;-78
2022/01/19 05:48:03;;;;;;;47.83;24.95;;;7.40;89.20;;;;;;5016536;28;20052;-78
2022/01/19 05:50:28;;;;;;;47.35;25.73;;;7.50;89.20;;;;;;5015985;28;20037;-78
2022/01/19 05:52:54;;;;;;;45.90;24.52;;;7.50;89.10;;;;;;5016251;28;20022;-78
2022/01/19 05:55:20;;;;;;;49.60;24.92;;;7.50;88.80;;;;;;5010883;28;20501;-77
2022/01/19 05:57:46;;;;;;;46.55;25.02;;;7.50;88.80;;;;;;5015937;28;20033;-77
2022/01/19 06:00:13;;;;;;;43.53;23.52;;;7.60;89.00;;;;;;5010219;28;20037;-78
2022/01/19 06:02:38;;;;;;;45.03;24.73;;;7.50;88.00;;;;;;5015258;28;20030;-78
2022/01/19 06:05:05;;;;;;;44.40;24.75;;;7.40;88.60;;;;;;5015895;28;20028;-78
2022/01/19 06:07:39;;;;;;;44.67;24.30;;;7.40;88.90;;;;;;5011738;28;20365;-78
2022/01/19 06:10:09;;;;;;;44.38;24.25;;;7.40;89.00;;;;;;5012631;28;20030;-78
2022/01/19 06:12:36;;;;;;;49.90;26.77;;;7.40;88.60;;;;;;5014541;28;20036;-78
2022/01/19 06:15:01;;;;;;;47.58;25.65;;;7.40;88.40;;;;;;5014418;28;20025;-79
2022/01/19 06:17:27;;;;;;;49.85;27.92;;;7.40;88.90;;;;;;5014386;28;20042;-78
2022/01/19 06:19:53;;;;;;;51.58;30.13;;;7.40;88.80;;;;;;5015382;28;20500;-78
2022/01/19 06:22:20;;;;;;;48.70;28.60;;;7.40;89.40;;;;;;5009815;28;20389;-78
2022/01/19 06:24:46;;;;;;;51.00;27.92;;;7.40;89.90;;;;;;5017863;28;20034;-78
2022/01/19 06:27:12;;;;;;;50.30;26.15;;;7.50;90.40;;;;;;5013664;28;20069;-79
2022/01/19 06:29:38;;;;;;;51.97;29.38;;;7.50;90.20;;;;;;5018592;28;20029;-78
2022/01/19 06:32:04;;;;;;;53.25;28.20;;;7.40;90.30;;;;;;5019545;28;20401;-79
2022/01/19 06:34:30;;;;;;;50.97;28.02;;;7.40;90.20;;;;;;5013324;28;20041;-78
2022/01/19 06:36:56;;;;;;;49.00;28.83;;;7.40;90.30;;;;;;5016356;28;20030;-79
2022/01/19 06:39:22;;;;;;;52.80;27.55;;;7.30;90.10;;;;;;5016897;28;20109;-80
2022/01/19 06:41:48;;;;;;;51.33;27.55;;;7.30;90.70;;;;;;5017434;28;20432;-80
2022/01/19 06:44:14;;;;;;;52.72;28.48;;;7.30;90.40;;;;;;5016198;28;20041;-79
2022/01/19 06:46:42;;;;;;;58.30;29.05;;;7.40;90.20;;;;;;5014254;28;20036;-77
2022/01/19 06:49:08;;;;;;;53.60;29.48;;;7.30;90.50;;;;;;5014586;28;20041;-78
2022/01/19 06:51:34;;;;;;;52.33;28.08;;;7.20;90.50;;;;;;5015001;28;20428;-78
2022/01/19 06:54:00;;;;;;;51.35;28.38;;;7.20;90.90;;;;;;5015810;28;20033;-79
2022/01/19 06:56:25;;;;;;;50.38;29.25;;;7.10;90.70;;;;;;5015745;28;20164;-80
2022/01/19 06:58:51;;;;;;;52.70;28.38;;;7.10;90.80;;;;;;5012918;28;20036;-80
2022/01/19 07:01:17;;;;;;;55.45;29.17;;;7.10;91.20;;;;;;5012001;28;20543;-80
2022/01/19 07:03:42;;;;;;;53.70;29.17;;;7.30;91.10;;;;;;5019911;28;20018;-80
2022/01/19 07:06:11;;;;;;;51.83;27.50;;;7.30;90.20;;;;;;5018918;28;20076;-79
2022/01/19 07:08:40;;;;;;;47.90;27.20;;;7.20;90.80;;;;;;5013223;28;20030;-79
2022/01/19 07:11:06;;;;;;;52.70;28.65;;;7.30;90.40;;;;;;5020834;28;20018;-80
2022/01/19 07:13:32;;;;;;;52.60;29.50;;;7.40;90.80;;;;;;5017092;28;20408;-79
2022/01/19 07:15:57;;;;;;;56.83;28.88;;;7.40;90.40;;;;;;5014708;28;20435;-79
2022/01/19 07:18:23;;;;;;;49.40;28.45;;;7.40;90.40;;;;;;5017848;28;20034;-79
2022/01/19 07:20:49;;;;;;;52.72;27.42;;;7.40;90.60;;;;;;5020907;28;20061;-79
2022/01/19 07:23:15;;;;;;;49.92;27.02;;;7.50;90.80;;;;;;5022247;28;20251;-80
2022/01/19 07:25:41;;;;;;;46.85;28.52;;;7.50;90.80;;;;;;5024310;28;20067;-79
2022/01/19 07:28:10;;;;;;;51.63;29.65;;;7.50;91.00;;;;;;5018783;28;20017;-79
2022/01/19 07:30:38;;;;;;;59.20;31.60;;;7.50;91.10;;;;;;5017871;28;20029;-79
2022/01/19 07:33:04;;;;;;;57.63;33.25;;;7.50;91.10;;;;;;5022515;28;20447;-80
2022/01/19 07:35:30;;;;;;;58.72;32.97;;;7.50;91.30;;;;;;5019037;28;20064;-79
2022/01/19 07:37:56;;;;;;;60.45;35.17;;;7.50;91.30;;;;;;5025845;28;20603;-78
2022/01/19 07:40:22;;;;;;;57.58;33.47;;;7.50;91.30;;;;;;5019525;28;20022;-79
2022/01/19 07:42:48;;;;;;;56.15;32.33;;;7.50;91.20;;;;;;5017506;28;20496;-79
2022/01/19 07:45:15;;;;;;;56.20;31.73;;;7.50;91.20;;;;;;5020449;28;20036;-79
2022/01/19 07:47:41;;;;;;;57.30;31.77;;;7.50;91.50;;;;;;5017760;28;20026;-81
2022/01/19 07:50:07;;;;;;;54.25;29.75;;;7.50;91.00;;;;;;5014974;28;20519;-81
2022/01/19 07:52:33;;;;;;;55.15;29.65;;;7.60;91.30;;;;;;5012305;28;20065;-80
2022/01/19 07:54:59;;;;;;;50.85;28.48;;;7.50;91.20;;;;;;5012603;28;20057;-80
2022/01/19 07:57:24;;;;;;;66.13;37.30;;;7.50;91.10;;;;;;5013880;28;20088;-79
2022/01/19 07:59:50;;;;;;;58.60;33.97;;;7.50;91.00;;;;;;5010204;28;20026;-80
2022/01/19 08:02:16;;;;;;;55.58;30.13;;;7.60;91.20;;;;;;5012026;28;20427;-80
2022/01/19 08:04:42;;;;;;;54.30;30.80;;;7.60;90.90;;;;;;5015781;28;20029;-80
2022/01/19 08:07:08;;;;;;;58.45;33.13;;;7.60;90.90;;;;;;5012245;28;20029;-80
2022/01/19 08:09:35;;;;;;;63.13;33.67;;;7.70;90.80;;;;;;5009733;28;20034;-80
2022/01/19 08:12:01;;;;;;;58.40;31.55;;;7.60;90.70;;;;;;5014000;28;20021;-81
2022/01/19 08:14:27;;;;;;;48.70;26.00;;;7.60;90.80;;;;;;5015080;28;20026;-80
2022/01/19 08:16:57;;;;;;;48.63;24.90;;;7.70;90.60;;;;;;5015110;28;20087;-80
2022/01/19 08:19:23;;;;;;;47.72;26.70;;;7.80;90.50;;;;;;5005302;28;20022;-80
2022/01/19 08:21:48;;;;;;;55.17;29.25;;;7.90;90.30;;;;;;5008634;28;20057;-81
2022/01/19 08:24:15;;;;;;;69.88;31.48;;;7.90;90.20;;;;;;5013232;28;20050;-80
2022/01/19 08:26:41;;;;;;;57.85;31.70;;;7.80;90.30;;;;;;5014118;28;20076;-80
2022/01/19 08:29:07;;;;;;;59.03;33.30;;;7.80;90.80;;;;;;5015514;28;20347;-80
2022/01/19 08:31:33;;;;;;;53.63;30.63;;;7.80;90.70;;;;;;5017897;28;20060;-79
2022/01/19 08:33:59;;;;;;;61.22;35.72;;;7.90;90.30;;;;;;5011850;28;20071;-80
2022/01/19 08:36:26;;;;;;;62.55;35.67;;;8.00;90.00;;;;;;5013630;28;20037;-80
2022/01/19 08:38:52;;;;;;;62.22;35.90;;;7.90;90.30;;;;;;5015810;28;20018;-80
2022/01/19 08:41:18;;;;;;;68.47;37.13;;;8.00;90.50;;;;;;5020735;28;20489;-80
2022/01/19 08:43:44;;;;;;;75.15;46.58;;;8.00;90.30;;;;;;5016186;28;20025;-80
2022/01/19 08:46:10;;;;;;;67.70;42.38;;;7.90;90.50;;;;;;5014614;28;20487;-80
2022/01/19 08:48:35;;;;;;;67.40;39.63;;;8.00;90.50;;;;;;5015980;28;20109;-80
2022/01/19 08:51:02;;;;;;;57.90;31.13;;;8.10;90.30;;;;;;5019118;28;20444;-81
2022/01/19 08:53:28;;;;;;;54.20;28.98;;;8.20;90.00;;;;;;5018133;28;20026;-81
2022/01/19 08:55:53;;;;;;;54.80;29.67;;;8.20;90.30;;;;;;5022801;28;20029;-81
2022/01/19 08:58:19;;;;;;;55.50;29.20;;;8.20;90.10;;;;;;5015771;28;20036;-81
2022/01/19 09:00:46;;;;;;;62.83;30.88;;;8.20;90.30;;;;;;5014970;28;20029;-80
2022/01/19 09:03:13;;;;;;;53.88;26.88;;;8.20;90.30;;;;;;5018805;28;20029;-80
2022/01/19 09:05:39;;;;;;;46.63;25.45;;;8.20;90.70;;;;;;5017445;28;20085;-80
2022/01/19 09:08:05;;;;;;;47.72;24.30;;;8.30;90.60;;;;;;5014101;28;20030;-80
2022/01/19 09:10:31;;;;;;;53.13;26.85;;;8.30;90.30;;;;;;5011787;28;20030;-80
2022/01/19 09:12:57;;;;;;;48.65;26.95;;;8.20;90.70;;;;;;5012249;28;20026;-80
2022/01/19 09:15:23;;;;;;;47.13;25.40;;;8.30;91.10;;;;;;5012024;28;20033;-80
2022/01/19 09:17:50;;;;;;;55.13;27.08;;;8.30;91.00;;;;;;5013241;28;20027;-80
2022/01/19 09:20:16;;;;;;;49.90;25.55;;;8.30;90.70;;;;;;5019024;28;20033;-80
2022/01/19 09:22:42;;;;;;;57.35;26.40;;;8.40;90.50;;;;;;5017068;28;20026;-81
2022/01/19 09:25:09;;;;;;;47.65;26.15;;;8.40;90.60;;;;;;5011896;28;20021;-81
2022/01/19 09:27:38;;;;;;;50.95;25.05;;;8.50;91.10;;;;;;5014126;28;20036;-80
2022/01/19 09:30:09;;;;;;;48.33;25.40;;;8.60;90.60;;;;;;5016722;28;20030;-81
2022/01/19 09:32:35;;;;;;;44.58;24.70;;;8.50;90.50;;;;;;5016701;28;20115;-80
2022/01/19 09:35:07;;;;;;;47.85;25.70;;;8.60;90.50;;;;;;5019848;28;20017;-80
2022/01/19 09:37:34;;;;;;;54.80;25.58;;;8.60;90.70;;;;;;5016509;28;20067;-80
2022/01/19 09:40:00;;;;;;;47.60;25.27;;;8.50;90.30;;;;;;5011669;28;20108;-80
2022/01/19 09:42:26;;;;;;;45.42;25.50;;;8.60;90.80;;;;;;5015627;28;20097;-80
2022/01/19 09:44:52;;;;;;;51.90;26.58;;;8.60;91.00;;;;;;5016887;28;20405;-80
2022/01/19 09:47:18;;;;;;;55.58;28.80;;;8.70;91.00;;;;;;5018130;28;20450;-80
2022/01/19 09:49:44;;;;;;;64.63;30.48;;;8.80;91.30;;;;;;5018483;28;20078;-80
2022/01/19 09:52:10;;;;;;;56.00;32.08;;;8.80;91.20;;;;;;5014712;28;20113;-80
2022/01/19 09:54:36;;;;;;;64.05;32.15;;;8.80;91.50;;;;;;5015675;28;20026;-80
2022/01/19 09:57:02;;;;;;;60.28;32.78;;;8.80;91.70;;;;;;5017339;28;20049;-80
2022/01/19 09:59:29;;;;;;;56.47;31.35;;;8.80;91.40;;;;;;5017537;28;20061;-80
2022/01/19 10:02:01;;;;;;;56.85;31.08;;;8.80;91.80;;;;;;5020132;28;20431;-80
2022/01/19 10:04:36;;;;;;;64.13;31.70;;;8.90;91.60;;;;;;5020604;28;20044;-80
2022/01/19 10:07:19;;;;;;;58.72;31.15;;;8.90;91.60;;;;;;5018950;28;20484;-81
2022/01/19 10:09:54;;;;;;;65.90;32.38;;;8.80;91.60;;;;;;5020804;28;20030;-80
2022/01/19 10:18:14;;;;;;;60.60;31.65;;;9.00;91.80;;;;;;5018315;28;20049;-80
2022/01/19 10:20:40;;;;;;;57.80;30.98;;;9.10;92.00;;;;;;5024668;28;20034;-81
2022/01/19 10:23:33;;;;;;;59.90;31.33;;;9.20;91.90;;;;;;5026296;28;20013;-80
2022/01/19 10:26:00;;;;;;;57.75;29.88;;;9.20;92.30;;;;;;5023489;28;20170;-79
2022/01/19 10:28:26;;;;;;;58.42;29.00;;;9.30;91.80;;;;;;5018705;28;20037;-81
2022/01/19 10:30:52;;;;;;;57.92;29.17;;;9.30;91.90;;;;;;5019121;28;20033;-80
2022/01/19 10:33:19;;;;;;;49.63;28.45;;;9.40;91.60;;;;;;5023186;28;20026;-80
2022/01/19 10:35:47;;;;;;;53.35;29.70;;;9.40;91.70;;;;;;5022697;28;20061;-80
2022/01/19 10:38:28;;;;;;;67.82;34.38;;;9.50;91.20;;;;;;5025395;28;20125;-81
2022/01/19 10:41:02;;;;;;;62.45;36.55;;;9.40;90.70;;;;;;5024830;28;20028;-80
2022/01/19 10:43:38;;;;;;;61.85;34.13;;;9.50;90.90;;;;;;5019972;28;20554;-80
2022/01/19 10:46:15;;;;;;;64.07;33.08;;;9.60;90.50;;;;;;5019232;28;20056;-80
2022/01/19 10:48:42;;;;;;;58.80;32.90;;;9.60;90.30;;;;;;5022300;28;20029;-80
2022/01/19 10:51:10;;;;;;;56.50;28.00;;;9.60;90.60;;;;;;5022587;28;20041;-80
2022/01/19 10:53:36;;;;;;;52.88;27.00;;;9.50;90.20;;;;;;5014876;28;20034;-80
2022/01/19 10:56:05;;;;;;;44.83;26.27;;;9.60;90.50;;;;;;5017418;28;20579;-80
2022/01/19 10:58:31;;;;;;;58.47;30.00;;;9.70;90.20;;;;;;5014571;28;20030;-80
2022/01/19 11:00:57;;;;;;;46.83;26.75;;;9.80;90.20;;;;;;5023068;28;20032;-80
2022/01/19 11:03:26;;;;;;;45.50;25.40;;;9.90;90.40;;;;;;5018808;28;20026;-76
2022/01/19 11:06:01;;;;;;;47.38;26.23;;;9.90;89.70;;;;;;5020173;28;20919;-77
2022/01/19 11:08:29;;;;;;;48.22;25.33;;;10.00;90.40;;;;;;5023752;28;20518;-77
2022/01/19 11:11:01;;;;;;;45.55;25.83;;;10.10;90.10;;;;;;5025472;28;20037;-87
2022/01/19 11:13:30;;;;;;;46.75;24.40;;;10.20;89.70;;;;;;5022747;28;20034;-83
2022/01/19 11:15:58;;;;;;;40.38;23.63;;;10.20;88.80;;;;;;5018997;28;20060;-80
2022/01/19 11:18:25;;;;;;;45.92;24.60;;;10.30;88.30;;;;;;5020236;28;20022;-81
2022/01/19 11:20:53;;;;;;;46.85;26.67;;;10.30;88.80;;;;;;5016704;28;20084;-84
2022/01/19 11:23:36;;;;;;;42.63;23.50;;;10.30;88.90;;;;;;5020216;28;20021;-86
2022/01/19 11:26:12;;;;;;;41.33;23.65;;;10.30;88.70;;;;;;5018002;28;20052;-86
2022/01/19 11:28:44;;;;;;;46.38;26.38;;;10.40;88.60;;;;;;5017962;28;20041;-92
2022/01/19 11:31:14;;;;;;;44.22;23.17;;;10.30;88.50;;;;;;5016591;28;20531;-90
2022/01/19 11:33:52;;;;;;;39.40;23.92;;;10.30;88.90;;;;;;5020385;28;20053;-88
2022/01/19 11:36:34;;;;;;;41.47;24.77;;;10.40;89.40;;;;;;5021100;28;20504;-87
2022/01/19 11:39:09;;;;;;;40.78;23.92;;;10.40;88.30;;;;;;5013875;28;20030;-78
2022/01/19 11:41:37;;;;;;;40.70;24.10;;;10.40;88.70;;;;;;5018476;28;20033;-85
2022/01/19 11:44:05;;;;;;;41.92;24.52;;;10.30;89.00;;;;;;5022743;28;20392;-82
2022/01/19 11:46:39;;;;;;;44.13;24.65;;;10.40;89.60;;;;;;5016495;28;20038;-83
2022/01/19 11:49:11;;;;;;;42.75;23.75;;;10.50;90.00;;;;;;5016259;28;20036;-81
2022/01/19 11:51:43;;;;;;;41.85;23.70;;;10.60;90.00;;;;;;5019430;28;20046;-80
2022/01/19 11:54:30;;;;;;;38.78;23.45;;;10.60;88.60;;;;;;5019666;28;20097;-81
2022/01/19 11:56:58;;;;;;;42.72;23.35;;;10.70;88.80;;;;;;5019242;28;20045;-81
2022/01/19 11:59:31;;;;;;;38.15;22.05;;;10.70;89.30;;;;;;5018929;28;20031;-82
2022/01/19 12:02:21;;;;;;;43.75;23.17;;;10.70;89.30;;;;;;5019147;28;20034;-82
2022/01/19 12:05:10;;;;;;;40.25;23.42;;;10.70;89.30;;;;;;5016033;28;20387;-82
2022/01/19 12:07:52;;;;;;;42.85;23.67;;;10.80;89.30;;;;;;4991967;28;20049;-82
2022/01/19 12:10:21;;;;;;;47.85;24.48;;;10.80;89.80;;;;;;4991275;28;20054;-79
2022/01/19 12:16:13;;;;;;;31.80;19.35;;;11.00;88.80;;;;;;4986843;28;20473;-80
2022/01/19 12:18:57;;;;;;;29.02;15.82;;;11.10;87.90;;;;;;4985212;28;20131;-80
2022/01/19 12:21:32;;;;;;;25.05;14.45;;;11.20;86.00;;;;;;4990455;28;20030;-77
2022/01/19 12:24:26;;;;;;;23.17;12.30;;;11.30;85.30;;;;;;4983996;28;20555;-78
2022/01/19 12:27:02;;;;;;;21.65;11.05;;;11.30;84.60;;;;;;4988029;28;20030;-77
2022/01/19 12:29:34;;;;;;;20.85;11.05;;;11.40;83.60;;;;;;4999141;28;20490;-77
2022/01/19 12:32:19;;;;;;;31.60;12.93;;;11.40;83.30;;;;;;5000668;28;20424;-77
2022/01/19 12:34:51;;;;;;;21.08;12.23;;;11.40;83.50;;;;;;4985564;28;20030;-80
2022/01/19 12:37:37;;;;;;;26.58;12.07;;;11.50;82.40;;;;;;4999127;28;20156;-82
2022/01/19 12:40:06;;;;;;;20.50;11.07;;;11.70;81.90;;;;;;4994433;28;20079;-79
2022/01/19 12:42:44;;;;;;;23.38;11.68;;;11.90;80.50;;;;;;4994243;28;20026;-78
2022/01/19 12:45:22;;;;;;;22.15;11.90;;;11.90;81.10;;;;;;4999341;28;20500;-79
2022/01/19 12:47:53;;;;;;;20.67;11.50;;;12.00;80.30;;;;;;5009016;28;20120;-79
2022/01/19 12:50:19;;;;;;;18.30;11.13;;;12.10;80.30;;;;;;5012996;28;20111;-79
2022/01/19 12:52:47;;;;;;;18.45;11.15;;;12.30;79.60;;;;;;5014057;28;20499;-78
2022/01/19 12:55:20;;;;;;;25.00;11.30;;;12.30;78.80;;;;;;5010235;28;20032;-79
2022/01/19 12:57:46;;;;;;;23.75;11.68;;;12.30;79.20;;;;;;5012014;28;20065;-79
2022/01/19 13:00:24;;;;;;;20.10;10.93;;;12.30;79.60;;;;;;5013176;28;20041;-79
2022/01/19 13:02:50;;;;;;;18.52;10.35;;;12.40;79.10;;;;;;5000876;28;20037;-81
2022/01/19 13:05:19;;;;;;;17.95;10.15;;;12.40;78.80;;;;;;5016271;28;20284;-78
2022/01/19 13:07:53;;;;;;;17.20;9.27;;;12.50;78.10;;;;;;5018344;28;20041;-81
2022/01/19 13:13:10;;;;;;;18.83;11.35;;;12.70;78.50;;;;;;5009295;28;20033;-81
2022/01/19 13:15:40;;;;;;;21.45;10.57;;;13.00;78.40;;;;;;5009709;28;20128;-85
2022/01/19 13:18:07;;;;;;;19.52;10.52;;;14.10;75.00;;;;;;5013045;28;20026;-82
2022/01/19 13:20:32;;;;;;;17.15;9.75;;;13.70;73.00;;;;;;5012334;28;20480;-82
2022/01/19 13:22:59;;;;;;;20.45;9.05;;;13.90;72.40;;;;;;5004963;28;20030;-82
2022/01/19 13:25:28;;;;;;;18.73;10.02;;;14.30;70.80;;;;;;5005058;28;20026;-82
2022/01/19 13:27:57;;;;;;;16.77;10.30;;;14.00;70.80;;;;;;5003142;28;20125;-81
2022/01/19 13:30:32;;;;;;;24.02;11.02;;;13.70;71.00;;;;;;5010661;28;20080;-80
2022/01/19 13:33:07;;;;;;;19.33;10.32;;;13.50;72.10;;;;;;5008445;28;20030;-81
2022/01/19 13:35:33;;;;;;;17.42;9.45;;;13.40;73.20;;;;;;5005587;28;20022;-82
2022/01/19 13:37:59;;;;;;;16.50;9.40;;;13.80;71.00;;;;;;5007333;28;20404;-81
2022/01/19 13:40:30;;;;;;;23.20;11.20;;;13.40;71.70;;;;;;5003261;28;20121;-80
2022/01/19 13:43:10;;;;;;;37.70;17.50;;;13.10;72.00;;;;;;4997848;28;20836;-82
2022/01/19 13:48:28;;;;;;;22.55;10.95;;;13.00;72.40;;;;;;5004907;28;20412;-81
2022/01/19 13:51:04;;;;;;;18.15;8.38;;;13.10;71.70;;;;;;5008393;28;20121;-86
2022/01/19 13:53:33;;;;;;;14.23;8.43;;;13.30;71.30;;;;;;5012045;28;20400;-86
2022/01/19 13:56:03;;;;;;;13.02;7.05;;;13.50;69.90;;;;;;5014949;28;20112;-86
2022/01/19 13:58:34;;;;;;;14.77;8.20;;;13.90;69.60;;;;;;5013233;28;20038;-88
2022/01/19 14:01:07;;;;;;;15.45;8.43;;;15.20;67.20;;;;;;5004056;28;20018;-89
2022/01/19 14:03:53;;;;;;;16.98;8.68;;;15.20;64.20;;;;;;5007579;28;20030;-89
2022/01/19 14:06:27;;;;;;;26.73;15.02;;;15.00;65.00;;;;;;5010384;28;20551;-89
2022/01/19 14:09:14;;;;;;;28.25;15.27;;;15.70;63.90;;;;;;5014915;28;20038;-89
2022/01/19 14:12:08;;;;;;;24.55;14.02;;;16.00;62.70;;;;;;5014851;28;20036;-89
2022/01/19 14:14:51;;;;;;;15.43;7.15;;;17.00;61.50;;;;;;5003795;28;20014;-88
2022/01/19 14:17:27;;;;;;;18.13;10.40;;;17.00;58.80;;;;;;5011828;28;20607;-88
2022/01/19 14:19:53;;;;;;;21.50;12.73;;;16.00;60.80;;;;;;5018602;28;20112;-87
2022/01/19 14:22:36;;;;;;;15.98;9.32;;;15.30;62.60;;;;;;5011388;28;20114;-88
2022/01/19 14:25:06;;;;;;;14.95;8.48;;;14.60;64.10;;;;;;5012081;28;20025;-87